Gesamt
K. D. Matanzima Airport (Umtata) UTT Wetter
|
Umtata (UTT / FAUT)
Klarer Himmel
Leichter Wind |
|
14 °C |
UTT Terminal Area Forecast
| Date | Time (SAST) | Flight Rules | Wind Dir. | Speed | Type | Height AGL (ft) | Visibility | Remarks | ||||||
|---|---|---|---|---|---|---|---|---|---|---|---|---|---|---|
Kürzlicher METAR-Verlauf für UTT
| Date | Time (SAST) | Flight Rules | Wind Dir. | Speed | Type | Height AGL (ft) | Visibility | Temp (°C) | Temp (°F) | Dew Point (°C) | Dew Point (°F) | Rel. Humid. | Pressure | Density Altitude | Remarks |
|---|---|---|---|---|---|---|---|---|---|---|---|---|---|---|---|
| 31-Aug | 20:00 | n/a | 180° | 4 kt | Missing | 14° | 57° | 13° | 55° | 94% | 1024 mb | 2.436 ft | |||
| 31-Aug | 19:00 | n/a | 180° | 7 kt | Missing | 14° | 57° | 13° | 55° | 94% | 1022 mb | 2.496 ft | |||
| 31-Aug | 18:00 | n/a | 160° | 7 kt | Missing | 16° | 60° | 12° | 53° | 77% | 1022 mb | 2.736 ft | |||
| 31-Aug | 17:00 | n/a | 110° | 7 kt | Missing | 18° | 64° | 13° | 55° | 73% | 1021 mb | 3.005 ft | |||
| 31-Aug | 16:00 | n/a | 130° | 6 kt | Missing | 18° | 64° | 12° | 53° | 68% | 1021 mb | 3.005 ft | |||
| 31-Aug | 15:00 | n/a | 120° | 7 kt | Missing | 18° | 64° | 13° | 55° | 73% | 1021 mb | 3.005 ft | |||
| 31-Aug | 14:00 | n/a | 140° | 8 kt | Missing | 18° | 64° | 13° | 55° | 73% | 1021 mb | 3.005 ft | |||
| 31-Aug | 13:00 | n/a | 110° | 6 kt | Missing | 18° | 64° | 13° | 55° | 73% | 1022 mb | 2.976 ft | |||
| 31-Aug | 12:00 | n/a | 70° | 4 kt | Missing | 16° | 60° | 13° | 55° | 82% | 1023 mb | 2.706 ft | |||
| 31-Aug | 11:00 | n/a | 140° | 1 kt | Missing | 15° | 59° | 13° | 55° | 88% | 1024 mb | 2.556 ft | |||
| 31-Aug | 10:00 | n/a | 60° | 2 kt | Missing | 14° | 57° | 13° | 55° | 94% | 1024 mb | 2.436 ft | |||
| 31-Aug | 09:00 | n/a | 200° | 2 kt | Missing | 13° | 55° | 12° | 53° | 94% | 1024 mb | 2.316 ft | |||
| 31-Aug | 08:00 | n/a | 180° | 3 kt | Missing | 12° | 53° | 12° | 53° | 100% | 1024 mb | 2.196 ft | |||
| 31-Aug | 07:00 | n/a | 160° | 1 kt | Missing | 12° | 53° | 12° | 53° | 100% | 1023 mb | 2.226 ft | |||
| 31-Aug | 06:00 | n/a | 130° | 1 kt | Missing | 12° | 53° | 12° | 53° | 100% | 1023 mb | 2.226 ft | |||
| 31-Aug | 05:00 | n/a | 170° | 2 kt | Missing | 12° | 53° | 11° | 51° | 94% | 1023 mb | 2.226 ft | |||
| 31-Aug | 04:00 | n/a | 190° | 2 kt | Missing | 12° | 53° | 11° | 51° | 94% | 1022 mb | 2.256 ft | |||
| 31-Aug | 03:00 | n/a | 200° | 3 kt | Missing | 12° | 53° | 12° | 53° | 100% | 1023 mb | 2.226 ft | |||
| 31-Aug | 02:00 | n/a | 220° | 1 kt | Missing | 12° | 53° | 12° | 53° | 100% | 1023 mb | 2.226 ft | |||
| 31-Aug | 01:00 | n/a | Calm | Missing | 12° | 53° | 11° | 51° | 94% | 1023 mb | 2.226 ft | ||||
| 31-Aug | 00:00 | n/a | 200° | 3 kt | Missing | 12° | 53° | 12° | 53° | 100% | 1023 mb | 2.226 ft | |||
| 30-Aug | 23:00 | n/a | 190° | 6 kt | Missing | 12° | 53° | 12° | 53° | 100% | 1023 mb | 2.226 ft | |||
| 30-Aug | 22:00 | n/a | 170° | 5 kt | Missing | 12° | 53° | 12° | 53° | 100% | 1023 mb | 2.226 ft | |||
| 30-Aug | 21:00 | n/a | 180° | 6 kt | Missing | 12° | 53° | 12° | 53° | 100% | 1023 mb | 2.226 ft |
Anmelden
| Ihr Browser wird nicht unterstützt. aktualisieren Sie Ihren Browser |
